sensor_id;sensor_type;location;lat;lon;timestamp;P1;durP1;ratioP1;P2;durP2;ratioP2
48367;SDS011;34173;47.446;18.912;2022-09-13T00:02:01;4.85;;;3.00;;
48367;SDS011;34173;47.446;18.912;2022-09-13T00:04:29;7.22;;;2.53;;
48367;SDS011;34173;47.446;18.912;2022-09-13T00:06:57;5.93;;;3.08;;
48367;SDS011;34173;47.446;18.912;2022-09-13T00:09:24;5.53;;;3.17;;
48367;SDS011;34173;47.446;18.912;2022-09-13T00:11:52;7.90;;;3.20;;
48367;SDS011;34173;47.446;18.912;2022-09-13T00:14:19;6.10;;;3.05;;
48367;SDS011;34173;47.446;18.912;2022-09-13T00:16:46;6.87;;;3.83;;
48367;SDS011;34173;47.446;18.912;2022-09-13T00:19:14;5.45;;;2.97;;
48367;SDS011;34173;47.446;18.912;2022-09-13T00:21:42;7.55;;;3.12;;
48367;SDS011;34173;47.446;18.912;2022-09-13T00:24:09;5.78;;;2.90;;
48367;SDS011;34173;47.446;18.912;2022-09-13T00:26:37;5.62;;;3.45;;
48367;SDS011;34173;47.446;18.912;2022-09-13T00:29:04;6.03;;;3.55;;
48367;SDS011;34173;47.446;18.912;2022-09-13T00:31:31;6.78;;;3.40;;
48367;SDS011;34173;47.446;18.912;2022-09-13T00:33:59;5.50;;;2.67;;
48367;SDS011;34173;47.446;18.912;2022-09-13T00:39:13;6.12;;;2.80;;
48367;SDS011;34173;47.446;18.912;2022-09-13T00:41:41;9.90;;;2.90;;
48367;SDS011;34173;47.446;18.912;2022-09-13T00:47:14;5.97;;;3.03;;
48367;SDS011;34173;47.446;18.912;2022-09-13T00:49:45;6.57;;;3.50;;
48367;SDS011;34173;47.446;18.912;2022-09-13T00:52:15;6.00;;;3.70;;
48367;SDS011;34173;47.446;18.912;2022-09-13T00:54:50;6.18;;;3.45;;
48367;SDS011;34173;47.446;18.912;2022-09-13T00:57:21;5.37;;;3.03;;
48367;SDS011;34173;47.446;18.912;2022-09-13T01:00:01;6.10;;;3.40;;
48367;SDS011;34173;47.446;18.912;2022-09-13T01:02:41;6.05;;;3.35;;
48367;SDS011;34173;47.446;18.912;2022-09-13T01:05:12;6.15;;;3.50;;
48367;SDS011;34173;47.446;18.912;2022-09-13T01:07:42;6.65;;;3.50;;
48367;SDS011;34173;47.446;18.912;2022-09-13T01:10:10;8.77;;;3.22;;
48367;SDS011;34173;47.446;18.912;2022-09-13T01:15:41;4.90;;;3.20;;
48367;SDS011;34173;47.446;18.912;2022-09-13T01:18:08;8.80;;;3.60;;
48367;SDS011;34173;47.446;18.912;2022-09-13T01:37:55;7.90;;;3.25;;
48367;SDS011;34173;47.446;18.912;2022-09-13T01:46:29;5.70;;;3.17;;
48367;SDS011;34173;47.446;18.912;2022-09-13T01:49:30;8.43;;;3.42;;
48367;SDS011;34173;47.446;18.912;2022-09-13T02:01:20;4.97;;;3.03;;
48367;SDS011;34173;47.446;18.912;2022-09-13T02:04:11;6.10;;;3.12;;
48367;SDS011;34173;47.446;18.912;2022-09-13T02:09:35;7.85;;;3.50;;
48367;SDS011;34173;47.446;18.912;2022-09-13T02:12:08;6.30;;;3.05;;
48367;SDS011;34173;47.446;18.912;2022-09-13T02:14:42;6.47;;;3.40;;
48367;SDS011;34173;47.446;18.912;2022-09-13T02:17:15;7.90;;;3.22;;
48367;SDS011;34173;47.446;18.912;2022-09-13T02:19:52;5.90;;;3.15;;
48367;SDS011;34173;47.446;18.912;2022-09-13T02:22:25;5.72;;;3.45;;
48367;SDS011;34173;47.446;18.912;2022-09-13T02:25:05;5.97;;;3.20;;
48367;SDS011;34173;47.446;18.912;2022-09-13T02:27:36;5.40;;;3.10;;
48367;SDS011;34173;47.446;18.912;2022-09-13T02:30:06;5.80;;;3.20;;
48367;SDS011;34173;47.446;18.912;2022-09-13T02:32:36;6.03;;;2.95;;
48367;SDS011;34173;47.446;18.912;2022-09-13T02:35:18;5.22;;;3.25;;
48367;SDS011;34173;47.446;18.912;2022-09-13T02:37:55;4.72;;;2.75;;
48367;SDS011;34173;47.446;18.912;2022-09-13T02:40:25;10.57;;;3.00;;
48367;SDS011;34173;47.446;18.912;2022-09-13T02:43:04;6.10;;;2.92;;
48367;SDS011;34173;47.446;18.912;2022-09-13T02:45:39;5.57;;;3.40;;
48367;SDS011;34173;47.446;18.912;2022-09-13T02:48:18;7.00;;;3.55;;
48367;SDS011;34173;47.446;18.912;2022-09-13T02:51:05;5.07;;;3.50;;
48367;SDS011;34173;47.446;18.912;2022-09-13T02:53:41;4.85;;;3.15;;
48367;SDS011;34173;47.446;18.912;2022-09-13T02:59:25;8.15;;;3.28;;
48367;SDS011;34173;47.446;18.912;2022-09-13T03:01:47;5.17;;;3.60;;
48367;SDS011;34173;47.446;18.912;2022-09-13T03:04:18;6.25;;;3.78;;
48367;SDS011;34173;47.446;18.912;2022-09-13T03:06:47;5.90;;;3.20;;
48367;SDS011;34173;47.446;18.912;2022-09-13T03:09:15;5.72;;;3.22;;
48367;SDS011;34173;47.446;18.912;2022-09-13T03:14:52;5.43;;;3.08;;
48367;SDS011;34173;47.446;18.912;2022-09-13T03:17:43;7.93;;;4.03;;
48367;SDS011;34173;47.446;18.912;2022-09-13T03:20:15;7.40;;;3.30;;
48367;SDS011;34173;47.446;18.912;2022-09-13T03:25:55;6.30;;;3.30;;
48367;SDS011;34173;47.446;18.912;2022-09-13T03:31:02;5.57;;;3.47;;
48367;SDS011;34173;47.446;18.912;2022-09-13T03:33:40;5.35;;;3.45;;
48367;SDS011;34173;47.446;18.912;2022-09-13T03:38:59;4.78;;;3.10;;
48367;SDS011;34173;47.446;18.912;2022-09-13T03:41:33;6.90;;;4.00;;
48367;SDS011;34173;47.446;18.912;2022-09-13T03:44:04;5.22;;;3.30;;
48367;SDS011;34173;47.446;18.912;2022-09-13T03:46:35;7.50;;;3.22;;
48367;SDS011;34173;47.446;18.912;2022-09-13T03:49:09;33.55;;;4.90;;
48367;SDS011;34173;47.446;18.912;2022-09-13T03:51:39;7.05;;;3.72;;
48367;SDS011;34173;47.446;18.912;2022-09-13T03:54:14;7.72;;;3.37;;
48367;SDS011;34173;47.446;18.912;2022-09-13T03:59:38;7.18;;;3.67;;
48367;SDS011;34173;47.446;18.912;2022-09-13T04:02:09;6.97;;;3.35;;
48367;SDS011;34173;47.446;18.912;2022-09-13T04:04:39;8.48;;;3.70;;
48367;SDS011;34173;47.446;18.912;2022-09-13T04:07:07;7.53;;;3.33;;
48367;SDS011;34173;47.446;18.912;2022-09-13T04:09:35;6.85;;;3.50;;
48367;SDS011;34173;47.446;18.912;2022-09-13T04:12:03;6.18;;;2.90;;
48367;SDS011;34173;47.446;18.912;2022-09-13T04:14:31;5.10;;;2.90;;
48367;SDS011;34173;47.446;18.912;2022-09-13T04:16:59;6.30;;;3.55;;
48367;SDS011;34173;47.446;18.912;2022-09-13T04:19:27;6.75;;;3.30;;
48367;SDS011;34173;47.446;18.912;2022-09-13T04:21:54;6.20;;;3.85;;
48367;SDS011;34173;47.446;18.912;2022-09-13T04:24:26;5.75;;;3.50;;
48367;SDS011;34173;47.446;18.912;2022-09-13T04:26:54;6.12;;;3.35;;
48367;SDS011;34173;47.446;18.912;2022-09-13T04:29:23;6.25;;;3.67;;
48367;SDS011;34173;47.446;18.912;2022-09-13T04:31:52;6.40;;;3.60;;
48367;SDS011;34173;47.446;18.912;2022-09-13T04:34:21;5.85;;;3.42;;
48367;SDS011;34173;47.446;18.912;2022-09-13T04:36:50;8.48;;;3.78;;
48367;SDS011;34173;47.446;18.912;2022-09-13T04:39:19;6.40;;;4.22;;
48367;SDS011;34173;47.446;18.912;2022-09-13T04:41:47;6.50;;;3.50;;
48367;SDS011;34173;47.446;18.912;2022-09-13T04:44:15;6.50;;;3.47;;
48367;SDS011;34173;47.446;18.912;2022-09-13T04:46:45;5.87;;;3.87;;
48367;SDS011;34173;47.446;18.912;2022-09-13T04:49:15;7.57;;;3.65;;
48367;SDS011;34173;47.446;18.912;2022-09-13T04:51:43;6.25;;;3.47;;
48367;SDS011;34173;47.446;18.912;2022-09-13T04:54:11;6.78;;;4.12;;
48367;SDS011;34173;47.446;18.912;2022-09-13T04:56:45;9.60;;;3.75;;
48367;SDS011;34173;47.446;18.912;2022-09-13T04:59:13;6.72;;;3.30;;
48367;SDS011;34173;47.446;18.912;2022-09-13T05:01:40;7.40;;;4.15;;
48367;SDS011;34173;47.446;18.912;2022-09-13T05:04:08;6.15;;;3.47;;
48367;SDS011;34173;47.446;18.912;2022-09-13T05:06:36;5.62;;;3.72;;
48367;SDS011;34173;47.446;18.912;2022-09-13T05:09:04;5.82;;;3.85;;
48367;SDS011;34173;47.446;18.912;2022-09-13T05:11:32;6.60;;;3.92;;
48367;SDS011;34173;47.446;18.912;2022-09-13T05:13:59;6.28;;;3.60;;
48367;SDS011;34173;47.446;18.912;2022-09-13T05:16:28;10.10;;;3.90;;
48367;SDS011;34173;47.446;18.912;2022-09-13T05:18:57;7.05;;;3.97;;
48367;SDS011;34173;47.446;18.912;2022-09-13T05:21:25;7.68;;;3.35;;
48367;SDS011;34173;47.446;18.912;2022-09-13T05:23:54;7.78;;;3.58;;
48367;SDS011;34173;47.446;18.912;2022-09-13T05:26:24;7.65;;;3.85;;
48367;SDS011;34173;47.446;18.912;2022-09-13T05:28:53;15.27;;;3.97;;
48367;SDS011;34173;47.446;18.912;2022-09-13T05:31:24;5.70;;;3.65;;
48367;SDS011;34173;47.446;18.912;2022-09-13T05:33:59;5.37;;;3.33;;
48367;SDS011;34173;47.446;18.912;2022-09-13T05:36:27;7.78;;;3.80;;
48367;SDS011;34173;47.446;18.912;2022-09-13T05:38:55;7.07;;;3.30;;
48367;SDS011;34173;47.446;18.912;2022-09-13T05:41:44;6.32;;;3.47;;
48367;SDS011;34173;47.446;18.912;2022-09-13T05:44:12;9.70;;;4.07;;
48367;SDS011;34173;47.446;18.912;2022-09-13T05:46:40;6.07;;;3.55;;
48367;SDS011;34173;47.446;18.912;2022-09-13T05:49:10;7.87;;;3.40;;
48367;SDS011;34173;47.446;18.912;2022-09-13T05:51:38;5.82;;;3.30;;
48367;SDS011;34173;47.446;18.912;2022-09-13T05:54:06;6.78;;;3.33;;
48367;SDS011;34173;47.446;18.912;2022-09-13T05:56:34;6.97;;;3.20;;
48367;SDS011;34173;47.446;18.912;2022-09-13T05:59:02;8.25;;;3.53;;
48367;SDS011;34173;47.446;18.912;2022-09-13T06:01:29;8.07;;;3.85;;
48367;SDS011;34173;47.446;18.912;2022-09-13T06:03:58;8.25;;;3.47;;
48367;SDS011;34173;47.446;18.912;2022-09-13T06:06:25;7.47;;;3.53;;
48367;SDS011;34173;47.446;18.912;2022-09-13T06:08:54;7.50;;;3.55;;
48367;SDS011;34173;47.446;18.912;2022-09-13T06:11:23;4.90;;;2.80;;
48367;SDS011;34173;47.446;18.912;2022-09-13T06:13:51;7.18;;;3.17;;
48367;SDS011;34173;47.446;18.912;2022-09-13T06:16:19;9.98;;;3.53;;
48367;SDS011;34173;47.446;18.912;2022-09-13T06:18:48;5.93;;;3.22;;
48367;SDS011;34173;47.446;18.912;2022-09-13T06:21:17;7.07;;;3.20;;
48367;SDS011;34173;47.446;18.912;2022-09-13T06:23:49;13.43;;;3.47;;
48367;SDS011;34173;47.446;18.912;2022-09-13T06:26:23;8.43;;;3.12;;
48367;SDS011;34173;47.446;18.912;2022-09-13T06:28:52;6.95;;;3.20;;
48367;SDS011;34173;47.446;18.912;2022-09-13T06:31:22;6.15;;;2.87;;
48367;SDS011;34173;47.446;18.912;2022-09-13T06:33:55;8.80;;;3.37;;
48367;SDS011;34173;47.446;18.912;2022-09-13T06:36:27;7.45;;;3.05;;
48367;SDS011;34173;47.446;18.912;2022-09-13T06:38:54;5.18;;;2.70;;
48367;SDS011;34173;47.446;18.912;2022-09-13T06:41:23;7.30;;;3.22;;
48367;SDS011;34173;47.446;18.912;2022-09-13T06:43:52;6.78;;;2.60;;
48367;SDS011;34173;47.446;18.912;2022-09-13T06:46:24;7.97;;;2.78;;
48367;SDS011;34173;47.446;18.912;2022-09-13T06:48:53;7.10;;;2.87;;
48367;SDS011;34173;47.446;18.912;2022-09-13T06:51:21;4.12;;;2.35;;
48367;SDS011;34173;47.446;18.912;2022-09-13T06:53:51;3.97;;;2.28;;
48367;SDS011;34173;47.446;18.912;2022-09-13T06:56:32;8.27;;;2.72;;
48367;SDS011;34173;47.446;18.912;2022-09-13T06:59:01;4.97;;;2.08;;
48367;SDS011;34173;47.446;18.912;2022-09-13T07:01:32;4.12;;;2.03;;
48367;SDS011;34173;47.446;18.912;2022-09-13T07:04:03;4.60;;;2.10;;
48367;SDS011;34173;47.446;18.912;2022-09-13T07:06:39;4.10;;;2.00;;
48367;SDS011;34173;47.446;18.912;2022-09-13T07:09:09;6.18;;;2.30;;
48367;SDS011;34173;47.446;18.912;2022-09-13T07:11:40;5.50;;;2.12;;
48367;SDS011;34173;47.446;18.912;2022-09-13T07:14:08;6.70;;;2.45;;
48367;SDS011;34173;47.446;18.912;2022-09-13T07:16:39;5.03;;;1.85;;
48367;SDS011;34173;47.446;18.912;2022-09-13T07:19:16;7.72;;;1.92;;
48367;SDS011;34173;47.446;18.912;2022-09-13T07:21:46;4.00;;;1.65;;
48367;SDS011;34173;47.446;18.912;2022-09-13T07:24:16;3.97;;;2.10;;
48367;SDS011;34173;47.446;18.912;2022-09-13T07:26:44;4.05;;;1.75;;
48367;SDS011;34173;47.446;18.912;2022-09-13T07:29:14;4.90;;;1.80;;
48367;SDS011;34173;47.446;18.912;2022-09-13T07:31:43;4.40;;;1.98;;
48367;SDS011;34173;47.446;18.912;2022-09-13T07:34:13;4.57;;;2.20;;
48367;SDS011;34173;47.446;18.912;2022-09-13T07:36:42;3.87;;;1.95;;
48367;SDS011;34173;47.446;18.912;2022-09-13T07:39:11;6.95;;;1.80;;
48367;SDS011;34173;47.446;18.912;2022-09-13T07:41:45;4.20;;;1.60;;
48367;SDS011;34173;47.446;18.912;2022-09-13T07:44:12;5.62;;;2.37;;
48367;SDS011;34173;47.446;18.912;2022-09-13T07:46:40;5.10;;;2.40;;
48367;SDS011;34173;47.446;18.912;2022-09-13T07:49:13;4.00;;;1.98;;
48367;SDS011;34173;47.446;18.912;2022-09-13T07:51:44;4.53;;;2.12;;
48367;SDS011;34173;47.446;18.912;2022-09-13T07:54:12;5.82;;;2.10;;
48367;SDS011;34173;47.446;18.912;2022-09-13T07:56:41;7.35;;;2.12;;
48367;SDS011;34173;47.446;18.912;2022-09-13T07:59:12;4.10;;;2.10;;
48367;SDS011;34173;47.446;18.912;2022-09-13T08:01:42;4.65;;;2.20;;
48367;SDS011;34173;47.446;18.912;2022-09-13T08:04:13;7.00;;;2.50;;
48367;SDS011;34173;47.446;18.912;2022-09-13T08:06:44;4.68;;;2.97;;
48367;SDS011;34173;47.446;18.912;2022-09-13T08:09:13;6.72;;;2.90;;
48367;SDS011;34173;47.446;18.912;2022-09-13T08:11:42;6.70;;;3.00;;
48367;SDS011;34173;47.446;18.912;2022-09-13T08:14:15;5.00;;;2.92;;
48367;SDS011;34173;47.446;18.912;2022-09-13T08:16:43;5.32;;;2.95;;
48367;SDS011;34173;47.446;18.912;2022-09-13T08:19:12;4.80;;;2.60;;
48367;SDS011;34173;47.446;18.912;2022-09-13T08:21:41;6.22;;;2.72;;
48367;SDS011;34173;47.446;18.912;2022-09-13T08:24:16;5.37;;;3.03;;
48367;SDS011;34173;47.446;18.912;2022-09-13T08:26:45;7.20;;;3.10;;
48367;SDS011;34173;47.446;18.912;2022-09-13T08:29:14;6.55;;;3.08;;
48367;SDS011;34173;47.446;18.912;2022-09-13T08:31:42;7.50;;;3.20;;
48367;SDS011;34173;47.446;18.912;2022-09-13T08:34:10;5.00;;;2.85;;
48367;SDS011;34173;47.446;18.912;2022-09-13T08:36:40;5.72;;;2.70;;
48367;SDS011;34173;47.446;18.912;2022-09-13T08:39:08;6.55;;;2.65;;
48367;SDS011;34173;47.446;18.912;2022-09-13T08:44:09;6.00;;;2.78;;
48367;SDS011;34173;47.446;18.912;2022-09-13T08:46:40;6.65;;;3.03;;
48367;SDS011;34173;47.446;18.912;2022-09-13T08:49:14;5.10;;;2.60;;
48367;SDS011;34173;47.446;18.912;2022-09-13T08:52:10;7.07;;;2.70;;
48367;SDS011;34173;47.446;18.912;2022-09-13T08:54:44;6.43;;;2.42;;
48367;SDS011;34173;47.446;18.912;2022-09-13T08:57:16;3.90;;;2.50;;
48367;SDS011;34173;47.446;18.912;2022-09-13T08:59:53;4.28;;;2.60;;
48367;SDS011;34173;47.446;18.912;2022-09-13T09:02:55;5.70;;;2.85;;
48367;SDS011;34173;47.446;18.912;2022-09-13T09:05:42;5.78;;;2.80;;
48367;SDS011;34173;47.446;18.912;2022-09-13T09:10:52;7.22;;;2.67;;
48367;SDS011;34173;47.446;18.912;2022-09-13T09:16:00;5.65;;;2.85;;
48367;SDS011;34173;47.446;18.912;2022-09-13T09:18:32;7.47;;;2.60;;
48367;SDS011;34173;47.446;18.912;2022-09-13T09:21:02;4.97;;;2.35;;
48367;SDS011;34173;47.446;18.912;2022-09-13T09:23:34;8.07;;;3.17;;
48367;SDS011;34173;47.446;18.912;2022-09-13T09:28:49;6.87;;;2.15;;
48367;SDS011;34173;47.446;18.912;2022-09-13T09:37:31;5.32;;;2.15;;
48367;SDS011;34173;47.446;18.912;2022-09-13T09:40:02;4.90;;;2.12;;
48367;SDS011;34173;47.446;18.912;2022-09-13T09:42:42;5.15;;;2.15;;
48367;SDS011;34173;47.446;18.912;2022-09-13T09:45:22;6.40;;;2.00;;
48367;SDS011;34173;47.446;18.912;2022-09-13T09:47:53;4.22;;;1.85;;
48367;SDS011;34173;47.446;18.912;2022-09-13T09:50:23;5.15;;;2.12;;
48367;SDS011;34173;47.446;18.912;2022-09-13T09:52:56;5.00;;;1.87;;
48367;SDS011;34173;47.446;18.912;2022-09-13T09:55:30;4.65;;;2.50;;
48367;SDS011;34173;47.446;18.912;2022-09-13T09:58:05;6.70;;;2.40;;
48367;SDS011;34173;47.446;18.912;2022-09-13T10:00:49;7.28;;;2.90;;
48367;SDS011;34173;47.446;18.912;2022-09-13T10:03:19;5.65;;;2.67;;
48367;SDS011;34173;47.446;18.912;2022-09-13T10:05:50;5.87;;;2.47;;
48367;SDS011;34173;47.446;18.912;2022-09-13T10:08:25;6.65;;;2.47;;
48367;SDS011;34173;47.446;18.912;2022-09-13T10:10:55;6.82;;;2.50;;
48367;SDS011;34173;47.446;18.912;2022-09-13T10:13:24;6.50;;;2.60;;
48367;SDS011;34173;47.446;18.912;2022-09-13T10:16:04;5.87;;;2.30;;
48367;SDS011;34173;47.446;18.912;2022-09-13T10:18:34;4.75;;;2.35;;
48367;SDS011;34173;47.446;18.912;2022-09-13T10:21:23;4.10;;;1.73;;
48367;SDS011;34173;47.446;18.912;2022-09-13T10:23:52;4.53;;;2.20;;
48367;SDS011;34173;47.446;18.912;2022-09-13T10:26:43;4.85;;;2.35;;
48367;SDS011;34173;47.446;18.912;2022-09-13T10:29:13;5.35;;;2.10;;
48367;SDS011;34173;47.446;18.912;2022-09-13T10:31:42;5.85;;;1.85;;
48367;SDS011;34173;47.446;18.912;2022-09-13T10:34:12;5.35;;;2.15;;
48367;SDS011;34173;47.446;18.912;2022-09-13T10:37:12;4.35;;;2.03;;
48367;SDS011;34173;47.446;18.912;2022-09-13T10:40:28;4.65;;;2.03;;
48367;SDS011;34173;47.446;18.912;2022-09-13T10:42:39;5.00;;;1.87;;
48367;SDS011;34173;47.446;18.912;2022-09-13T10:45:07;6.90;;;2.12;;
48367;SDS011;34173;47.446;18.912;2022-09-13T10:48:18;8.07;;;2.03;;
48367;SDS011;34173;47.446;18.912;2022-09-13T10:50:31;8.38;;;1.75;;
48367;SDS011;34173;47.446;18.912;2022-09-13T10:52:59;5.50;;;2.03;;
48367;SDS011;34173;47.446;18.912;2022-09-13T11:06:23;7.37;;;1.75;;
48367;SDS011;34173;47.446;18.912;2022-09-13T11:11:49;4.72;;;2.15;;
48367;SDS011;34173;47.446;18.912;2022-09-13T11:17:23;5.53;;;2.03;;
48367;SDS011;34173;47.446;18.912;2022-09-13T11:25:03;3.65;;;1.85;;
48367;SDS011;34173;47.446;18.912;2022-09-13T11:56:00;3.35;;;1.75;;
48367;SDS011;34173;47.446;18.912;2022-09-13T11:58:33;4.32;;;1.52;;
48367;SDS011;34173;47.446;18.912;2022-09-13T12:01:08;3.47;;;1.50;;
48367;SDS011;34173;47.446;18.912;2022-09-13T12:06:19;4.15;;;1.90;;
48367;SDS011;34173;47.446;18.912;2022-09-13T12:08:55;2.97;;;1.73;;
48367;SDS011;34173;47.446;18.912;2022-09-13T12:11:32;3.12;;;1.30;;
48367;SDS011;34173;47.446;18.912;2022-09-13T12:14:02;2.70;;;1.45;;
48367;SDS011;34173;47.446;18.912;2022-09-13T12:16:51;3.58;;;1.40;;
48367;SDS011;34173;47.446;18.912;2022-09-13T12:21:54;2.60;;;1.23;;
48367;SDS011;34173;47.446;18.912;2022-09-13T12:30:14;3.22;;;1.70;;
48367;SDS011;34173;47.446;18.912;2022-09-13T12:32:42;8.38;;;1.40;;
48367;SDS011;34173;47.446;18.912;2022-09-13T12:38:35;4.70;;;1.55;;
48367;SDS011;34173;47.446;18.912;2022-09-13T13:00:46;3.12;;;1.40;;
48367;SDS011;34173;47.446;18.912;2022-09-13T13:03:28;2.90;;;1.50;;
48367;SDS011;34173;47.446;18.912;2022-09-13T13:06:08;6.28;;;1.60;;
48367;SDS011;34173;47.446;18.912;2022-09-13T13:08:51;2.75;;;1.33;;
48367;SDS011;34173;47.446;18.912;2022-09-13T13:11:24;2.58;;;1.33;;
48367;SDS011;34173;47.446;18.912;2022-09-13T13:16:36;3.25;;;1.55;;
48367;SDS011;34173;47.446;18.912;2022-09-13T13:21:55;3.33;;;1.42;;
48367;SDS011;34173;47.446;18.912;2022-09-13T13:26:51;4.55;;;1.42;;
48367;SDS011;34173;47.446;18.912;2022-09-13T13:34:28;2.87;;;1.73;;
48367;SDS011;34173;47.446;18.912;2022-09-13T13:37:02;4.35;;;1.50;;
48367;SDS011;34173;47.446;18.912;2022-09-13T13:45:12;3.45;;;1.48;;
48367;SDS011;34173;47.446;18.912;2022-09-13T13:48:05;4.30;;;1.77;;
48367;SDS011;34173;47.446;18.912;2022-09-13T13:53:47;3.80;;;1.40;;
48367;SDS011;34173;47.446;18.912;2022-09-13T13:56:31;7.72;;;1.55;;
48367;SDS011;34173;47.446;18.912;2022-09-13T13:59:10;2.53;;;1.50;;
48367;SDS011;34173;47.446;18.912;2022-09-13T14:01:43;3.05;;;1.60;;
48367;SDS011;34173;47.446;18.912;2022-09-13T14:07:05;3.22;;;1.65;;
48367;SDS011;34173;47.446;18.912;2022-09-13T14:12:44;4.18;;;1.60;;
48367;SDS011;34173;47.446;18.912;2022-09-13T14:15:32;2.05;;;1.27;;
48367;SDS011;34173;47.446;18.912;2022-09-13T14:20:58;2.85;;;1.30;;
48367;SDS011;34173;47.446;18.912;2022-09-13T14:23:35;3.42;;;1.58;;
48367;SDS011;34173;47.446;18.912;2022-09-13T14:26:03;3.37;;;1.50;;
48367;SDS011;34173;47.446;18.912;2022-09-13T14:28:32;2.65;;;1.30;;
48367;SDS011;34173;47.446;18.912;2022-09-13T14:30:59;4.18;;;1.42;;
48367;SDS011;34173;47.446;18.912;2022-09-13T14:33:34;2.78;;;1.27;;
48367;SDS011;34173;47.446;18.912;2022-09-13T14:36:07;3.70;;;1.52;;
48367;SDS011;34173;47.446;18.912;2022-09-13T14:38:46;1.80;;;1.20;;
48367;SDS011;34173;47.446;18.912;2022-09-13T14:41:28;3.15;;;1.30;;
48367;SDS011;34173;47.446;18.912;2022-09-13T14:44:12;2.75;;;1.42;;
48367;SDS011;34173;47.446;18.912;2022-09-13T14:46:56;3.42;;;1.40;;
48367;SDS011;34173;47.446;18.912;2022-09-13T14:49:30;3.53;;;1.65;;
48367;SDS011;34173;47.446;18.912;2022-09-13T14:52:14;2.42;;;1.27;;
48367;SDS011;34173;47.446;18.912;2022-09-13T14:54:47;2.55;;;1.30;;
48367;SDS011;34173;47.446;18.912;2022-09-13T14:57:28;2.08;;;1.20;;
48367;SDS011;34173;47.446;18.912;2022-09-13T15:00:05;3.35;;;1.70;;
48367;SDS011;34173;47.446;18.912;2022-09-13T15:02:36;2.65;;;1.33;;
48367;SDS011;34173;47.446;18.912;2022-09-13T15:05:07;4.40;;;1.37;;
48367;SDS011;34173;47.446;18.912;2022-09-13T15:07:40;4.45;;;1.90;;
48367;SDS011;34173;47.446;18.912;2022-09-13T15:15:23;5.25;;;1.60;;
48367;SDS011;34173;47.446;18.912;2022-09-13T15:20:27;5.97;;;1.98;;
48367;SDS011;34173;47.446;18.912;2022-09-13T15:22:57;6.30;;;2.40;;
48367;SDS011;34173;47.446;18.912;2022-09-13T15:25:25;6.68;;;3.35;;
48367;SDS011;34173;47.446;18.912;2022-09-13T15:27:54;5.15;;;2.30;;
48367;SDS011;34173;47.446;18.912;2022-09-13T15:30:27;4.18;;;2.10;;
48367;SDS011;34173;47.446;18.912;2022-09-13T15:33:30;2.73;;;1.60;;
48367;SDS011;34173;47.446;18.912;2022-09-13T15:41:39;3.78;;;1.75;;
48367;SDS011;34173;47.446;18.912;2022-09-13T15:44:08;3.55;;;1.60;;
48367;SDS011;34173;47.446;18.912;2022-09-13T15:46:59;3.62;;;1.60;;
48367;SDS011;34173;47.446;18.912;2022-09-13T15:49:31;3.97;;;1.92;;
48367;SDS011;34173;47.446;18.912;2022-09-13T15:51:59;5.07;;;2.05;;
48367;SDS011;34173;47.446;18.912;2022-09-13T15:57:07;4.10;;;1.73;;
48367;SDS011;34173;47.446;18.912;2022-09-13T15:59:35;3.30;;;1.70;;
48367;SDS011;34173;47.446;18.912;2022-09-13T16:02:13;6.68;;;1.52;;
48367;SDS011;34173;47.446;18.912;2022-09-13T16:04:44;3.12;;;1.65;;
48367;SDS011;34173;47.446;18.912;2022-09-13T16:07:12;4.50;;;1.65;;
48367;SDS011;34173;47.446;18.912;2022-09-13T16:09:40;3.50;;;1.77;;
48367;SDS011;34173;47.446;18.912;2022-09-13T16:12:08;3.50;;;1.60;;
48367;SDS011;34173;47.446;18.912;2022-09-13T16:14:36;5.20;;;1.58;;
48367;SDS011;34173;47.446;18.912;2022-09-13T16:17:05;3.90;;;1.73;;
48367;SDS011;34173;47.446;18.912;2022-09-13T16:19:37;4.90;;;1.77;;
48367;SDS011;34173;47.446;18.912;2022-09-13T16:22:04;6.15;;;1.50;;
48367;SDS011;34173;47.446;18.912;2022-09-13T16:24:38;4.05;;;1.60;;
48367;SDS011;34173;47.446;18.912;2022-09-13T16:27:05;4.72;;;1.62;;
48367;SDS011;34173;47.446;18.912;2022-09-13T16:29:33;4.97;;;2.28;;
48367;SDS011;34173;47.446;18.912;2022-09-13T16:32:01;5.53;;;2.15;;
48367;SDS011;34173;47.446;18.912;2022-09-13T16:34:28;4.12;;;1.80;;
48367;SDS011;34173;47.446;18.912;2022-09-13T16:36:56;4.97;;;1.85;;
48367;SDS011;34173;47.446;18.912;2022-09-13T16:39:24;4.55;;;1.83;;
48367;SDS011;34173;47.446;18.912;2022-09-13T16:41:51;9.95;;;2.40;;
48367;SDS011;34173;47.446;18.912;2022-09-13T16:44:19;5.95;;;2.10;;
48367;SDS011;34173;47.446;18.912;2022-09-13T16:46:47;3.90;;;1.73;;
48367;SDS011;34173;47.446;18.912;2022-09-13T16:49:14;7.40;;;2.22;;
48367;SDS011;34173;47.446;18.912;2022-09-13T16:51:42;10.30;;;2.70;;
48367;SDS011;34173;47.446;18.912;2022-09-13T16:54:09;7.22;;;2.08;;
48367;SDS011;34173;47.446;18.912;2022-09-13T16:56:38;5.47;;;2.45;;
48367;SDS011;34173;47.446;18.912;2022-09-13T16:59:05;10.07;;;3.62;;
48367;SDS011;34173;47.446;18.912;2022-09-13T17:01:33;8.73;;;3.08;;
48367;SDS011;34173;47.446;18.912;2022-09-13T17:04:00;6.57;;;3.35;;
48367;SDS011;34173;47.446;18.912;2022-09-13T17:06:28;8.35;;;3.30;;
48367;SDS011;34173;47.446;18.912;2022-09-13T17:08:57;9.40;;;3.87;;
48367;SDS011;34173;47.446;18.912;2022-09-13T17:11:30;8.80;;;3.85;;
48367;SDS011;34173;47.446;18.912;2022-09-13T17:14:01;7.12;;;3.78;;
48367;SDS011;34173;47.446;18.912;2022-09-13T17:16:32;7.93;;;3.22;;
48367;SDS011;34173;47.446;18.912;2022-09-13T17:19:03;6.18;;;2.85;;
48367;SDS011;34173;47.446;18.912;2022-09-13T17:21:32;7.18;;;2.80;;
48367;SDS011;34173;47.446;18.912;2022-09-13T17:24:00;7.60;;;2.33;;
48367;SDS011;34173;47.446;18.912;2022-09-13T17:26:28;5.43;;;2.42;;
48367;SDS011;34173;47.446;18.912;2022-09-13T17:28:56;6.43;;;2.55;;
48367;SDS011;34173;47.446;18.912;2022-09-13T17:31:23;6.72;;;2.50;;
48367;SDS011;34173;47.446;18.912;2022-09-13T17:33:51;6.43;;;2.75;;
48367;SDS011;34173;47.446;18.912;2022-09-13T17:36:19;8.15;;;2.50;;
48367;SDS011;34173;47.446;18.912;2022-09-13T17:38:47;8.45;;;2.50;;
48367;SDS011;34173;47.446;18.912;2022-09-13T17:41:18;8.93;;;2.72;;
48367;SDS011;34173;47.446;18.912;2022-09-13T17:43:51;3.87;;;2.10;;
48367;SDS011;34173;47.446;18.912;2022-09-13T17:46:21;6.82;;;2.33;;
48367;SDS011;34173;47.446;18.912;2022-09-13T17:48:50;10.23;;;2.78;;
48367;SDS011;34173;47.446;18.912;2022-09-13T17:51:23;9.38;;;2.90;;
48367;SDS011;34173;47.446;18.912;2022-09-13T17:53:54;5.85;;;2.67;;
48367;SDS011;34173;47.446;18.912;2022-09-13T17:56:31;6.50;;;2.77;;
48367;SDS011;34173;47.446;18.912;2022-09-13T17:59:04;6.55;;;2.47;;
48367;SDS011;34173;47.446;18.912;2022-09-13T18:01:37;6.72;;;3.30;;
48367;SDS011;34173;47.446;18.912;2022-09-13T18:04:06;6.37;;;2.50;;
48367;SDS011;34173;47.446;18.912;2022-09-13T18:06:35;7.90;;;3.03;;
48367;SDS011;34173;47.446;18.912;2022-09-13T18:09:04;7.50;;;2.67;;
48367;SDS011;34173;47.446;18.912;2022-09-13T18:11:32;5.78;;;3.00;;
48367;SDS011;34173;47.446;18.912;2022-09-13T18:14:01;8.05;;;4.28;;
48367;SDS011;34173;47.446;18.912;2022-09-13T18:16:29;7.87;;;4.12;;
48367;SDS011;34173;47.446;18.912;2022-09-13T18:18:58;10.07;;;3.75;;
48367;SDS011;34173;47.446;18.912;2022-09-13T18:21:27;7.53;;;3.30;;
48367;SDS011;34173;47.446;18.912;2022-09-13T18:23:57;7.95;;;3.50;;
48367;SDS011;34173;47.446;18.912;2022-09-13T18:26:28;8.48;;;3.42;;
48367;SDS011;34173;47.446;18.912;2022-09-13T18:28:59;8.38;;;3.60;;
48367;SDS011;34173;47.446;18.912;2022-09-13T18:31:31;8.07;;;3.70;;